createdAt,value
2023-12-17T00:00:35.563Z,85.70
2023-12-17T00:03:17.510Z,85.40
2023-12-17T00:05:47.015Z,85.80
2023-12-17T00:08:13.558Z,86.00
2023-12-17T00:10:40.110Z,85.50
2023-12-17T00:13:06.673Z,86.10
2023-12-17T00:15:33.369Z,85.50
2023-12-17T00:18:00.119Z,85.20
2023-12-17T00:20:26.728Z,85.70
2023-12-17T00:22:53.236Z,85.80
2023-12-17T00:25:19.778Z,85.70
2023-12-17T00:27:46.333Z,86.40
2023-12-17T00:30:12.887Z,86.40
2023-12-17T00:32:39.522Z,86.50
2023-12-17T00:35:06.172Z,86.50
2023-12-17T00:37:32.734Z,86.60
2023-12-17T00:39:59.299Z,86.70
2023-12-17T00:42:25.886Z,86.50
2023-12-17T00:44:52.443Z,86.50
2023-12-17T00:47:19.008Z,86.70
2023-12-17T00:49:45.653Z,86.70
2023-12-17T00:52:12.270Z,86.80
2023-12-17T00:54:38.808Z,86.30
2023-12-17T00:57:05.458Z,86.30
2023-12-17T00:59:32.002Z,85.90
2023-12-17T01:01:58.559Z,86.40
2023-12-17T01:04:25.108Z,86.00
2023-12-17T01:06:58.864Z,86.40
2023-12-17T01:09:25.471Z,86.60
2023-12-17T01:11:52.060Z,85.80
2023-12-17T01:14:18.654Z,85.40
2023-12-17T01:16:48.720Z,85.50
2023-12-17T01:19:15.326Z,85.90
2023-12-17T01:21:42.707Z,85.90
2023-12-17T01:24:09.269Z,86.00
2023-12-17T01:26:38.079Z,86.00
2023-12-17T01:29:04.611Z,86.60
2023-12-17T01:31:31.127Z,86.90
2023-12-17T01:33:57.771Z,86.60
2023-12-17T01:36:24.440Z,86.20
2023-12-17T01:38:51.060Z,86.40
2023-12-17T01:41:17.658Z,86.30
2023-12-17T01:43:50.150Z,86.20
2023-12-17T01:46:16.703Z,86.10
2023-12-17T01:48:43.348Z,86.70
2023-12-17T01:51:10.041Z,86.10
2023-12-17T01:53:36.598Z,85.90
2023-12-17T01:56:03.144Z,85.90
2023-12-17T01:58:29.819Z,86.00
2023-12-17T02:03:36.767Z,86.40
2023-12-17T02:06:03.428Z,86.00
2023-12-17T02:08:30.050Z,85.90
2023-12-17T02:10:56.585Z,86.30
2023-12-17T02:13:23.128Z,86.30
2023-12-17T02:15:49.647Z,86.10
2023-12-17T02:18:16.329Z,86.50
2023-12-17T02:20:42.930Z,86.70
2023-12-17T02:23:09.495Z,86.00
2023-12-17T02:25:36.023Z,86.60
2023-12-17T02:28:02.669Z,86.90
2023-12-17T02:30:29.375Z,86.90
2023-12-17T02:32:56.043Z,87.20
2023-12-17T02:35:22.673Z,87.00
2023-12-17T02:37:56.514Z,86.80
2023-12-17T02:40:23.056Z,86.80
2023-12-17T02:42:51.893Z,87.20
2023-12-17T02:45:18.463Z,86.60
2023-12-17T02:47:45.331Z,86.50
2023-12-17T02:50:12.026Z,86.30
2023-12-17T02:52:38.566Z,86.20
2023-12-17T02:55:05.097Z,86.20
2023-12-17T02:57:31.683Z,86.20
2023-12-17T02:59:58.239Z,86.70
2023-12-17T03:02:27.225Z,86.50
2023-12-17T03:04:59.914Z,86.40
2023-12-17T03:07:28.654Z,86.30
2023-12-17T03:09:55.214Z,87.10
2023-12-17T03:12:21.873Z,86.50
2023-12-17T03:14:48.430Z,86.50
2023-12-17T03:17:14.968Z,86.50
2023-12-17T03:19:41.507Z,86.60
2023-12-17T03:22:08.062Z,87.20
2023-12-17T03:24:34.633Z,85.70
2023-12-17T03:27:01.198Z,86.00
2023-12-17T03:29:29.993Z,86.00
2023-12-17T03:31:56.509Z,86.70
2023-12-17T03:34:23.134Z,86.20
2023-12-17T03:36:49.762Z,87.00
2023-12-17T03:39:16.308Z,87.00
2023-12-17T03:41:42.998Z,87.50
2023-12-17T03:44:09.567Z,87.40
2023-12-17T03:46:36.129Z,87.10
2023-12-17T03:49:03.434Z,86.80
2023-12-17T03:51:30.089Z,86.70
2023-12-17T03:53:56.661Z,87.30
2023-12-17T03:56:23.203Z,87.20
2023-12-17T03:58:49.888Z,87.00
2023-12-17T04:01:16.426Z,86.80
2023-12-17T04:03:43.125Z,87.00
2023-12-17T04:06:09.872Z,86.70
2023-12-17T04:08:36.435Z,86.90
2023-12-17T04:11:03.108Z,86.80
2023-12-17T04:13:29.646Z,87.00
2023-12-17T04:15:56.180Z,86.90
2023-12-17T04:18:22.934Z,86.50
2023-12-17T04:20:49.678Z,86.60
2023-12-17T04:23:16.277Z,86.50
2023-12-17T04:25:42.828Z,86.40
2023-12-17T04:28:09.369Z,86.50
2023-12-17T04:30:35.997Z,86.60
2023-12-17T04:33:02.727Z,87.10
2023-12-17T04:35:29.289Z,87.20
2023-12-17T04:37:55.827Z,86.80
2023-12-17T04:40:22.352Z,87.10
2023-12-17T04:42:48.889Z,86.60
2023-12-17T04:45:17.943Z,86.70
2023-12-17T04:47:44.940Z,87.10
2023-12-17T04:50:19.230Z,87.30
2023-12-17T04:52:45.757Z,86.90
2023-12-17T04:55:12.275Z,86.80
2023-12-17T04:57:39.123Z,86.90
2023-12-17T05:00:05.967Z,87.20
2023-12-17T05:02:32.524Z,87.50
2023-12-17T05:04:59.194Z,87.50
2023-12-17T05:07:25.752Z,87.00
2023-12-17T05:09:52.320Z,86.80
2023-12-17T05:12:18.862Z,86.70
2023-12-17T05:14:45.523Z,85.90
2023-12-17T05:17:12.064Z,85.50
2023-12-17T05:19:38.776Z,85.10
2023-12-17T05:22:05.429Z,85.20
2023-12-17T05:24:31.984Z,84.80
2023-12-17T05:26:58.599Z,84.30
2023-12-17T05:32:05.516Z,83.90
2023-12-17T05:34:32.139Z,84.00
2023-12-17T05:36:58.688Z,84.20
2023-12-17T05:39:25.261Z,83.80
2023-12-17T05:41:51.839Z,84.20
2023-12-17T05:44:18.391Z,84.50
2023-12-17T05:46:44.948Z,84.50
2023-12-17T05:49:11.655Z,84.10
2023-12-17T05:51:38.292Z,84.30
2023-12-17T05:54:04.840Z,83.70
2023-12-17T05:56:31.554Z,83.60
2023-12-17T05:58:58.180Z,83.90
2023-12-17T06:01:24.749Z,83.20
2023-12-17T06:06:31.776Z,83.60
2023-12-17T06:08:58.546Z,83.20
2023-12-17T06:11:25.138Z,83.20
2023-12-17T06:13:51.686Z,83.00
2023-12-17T06:16:18.275Z,82.90
2023-12-17T06:18:44.978Z,82.80
2023-12-17T06:21:11.675Z,82.10
2023-12-17T06:23:38.195Z,81.80
2023-12-17T06:28:47.212Z,81.70
2023-12-17T06:31:13.815Z,81.60
2023-12-17T06:33:40.562Z,83.00
2023-12-17T06:36:07.183Z,82.40
2023-12-17T06:38:33.744Z,82.40
2023-12-17T06:41:00.275Z,83.20
2023-12-17T06:43:26.820Z,84.40
2023-12-17T06:45:55.530Z,83.40
2023-12-17T06:48:22.231Z,84.40
2023-12-17T06:50:48.989Z,84.00
2023-12-17T06:53:15.585Z,83.50
2023-12-17T06:55:42.110Z,83.50
2023-12-17T06:58:08.616Z,84.10
2023-12-17T07:00:35.292Z,84.70
2023-12-17T07:03:01.910Z,84.60
2023-12-17T07:05:28.533Z,85.10
2023-12-17T07:07:55.074Z,85.30
2023-12-17T07:10:21.643Z,84.90
2023-12-17T07:12:48.213Z,85.00
2023-12-17T07:15:14.737Z,85.10
2023-12-17T07:17:41.498Z,85.40
2023-12-17T07:20:08.234Z,85.60
2023-12-17T07:22:34.769Z,85.70
2023-12-17T07:25:01.305Z,85.70
2023-12-17T07:27:27.842Z,85.80
2023-12-17T07:29:54.389Z,86.00
2023-12-17T07:32:20.948Z,85.70
2023-12-17T07:34:47.570Z,85.40
2023-12-17T07:39:54.492Z,85.50
2023-12-17T07:42:22.679Z,85.60
2023-12-17T07:44:55.138Z,85.40
2023-12-17T07:47:21.725Z,85.30
2023-12-17T07:49:48.333Z,85.40
2023-12-17T07:52:14.888Z,85.70
2023-12-17T07:54:41.415Z,85.80
2023-12-17T07:57:07.984Z,85.50
2023-12-17T07:59:34.565Z,85.50
2023-12-17T08:02:01.107Z,85.60
2023-12-17T08:04:27.823Z,85.50
2023-12-17T08:06:54.563Z,85.20
2023-12-17T08:09:21.222Z,85.30
2023-12-17T08:11:55.266Z,85.00
2023-12-17T08:14:21.826Z,84.70
2023-12-17T08:16:49.022Z,85.00
2023-12-17T08:19:15.561Z,85.30
2023-12-17T08:21:42.155Z,85.10
2023-12-17T08:24:08.757Z,84.80
2023-12-17T08:26:35.322Z,84.90
2023-12-17T08:29:01.870Z,85.00
2023-12-17T08:31:29.527Z,84.80
2023-12-17T08:33:56.180Z,85.00
2023-12-17T08:36:22.775Z,85.50
2023-12-17T08:38:49.417Z,85.30
2023-12-17T08:41:15.997Z,85.50
2023-12-17T08:43:42.570Z,85.60
2023-12-17T08:46:09.123Z,85.30
2023-12-17T08:48:35.804Z,85.60
2023-12-17T08:53:43.040Z,85.50
2023-12-17T08:56:09.592Z,85.50
2023-12-17T08:58:36.191Z,85.70
2023-12-17T09:01:02.782Z,85.90
2023-12-17T09:03:29.428Z,85.60
2023-12-17T09:05:56.047Z,85.40
2023-12-17T09:08:22.655Z,85.80
2023-12-17T09:10:51.730Z,85.50
2023-12-17T09:13:18.339Z,85.80
2023-12-17T09:15:44.874Z,85.30
2023-12-17T09:18:11.770Z,85.40
2023-12-17T09:20:38.374Z,85.40
2023-12-17T09:23:04.921Z,85.70
2023-12-17T09:25:31.525Z,85.50
2023-12-17T09:27:58.134Z,85.60
2023-12-17T09:30:24.792Z,85.60
2023-12-17T09:32:51.502Z,85.60
2023-12-17T09:35:19.556Z,85.20
2023-12-17T09:37:46.345Z,85.20
2023-12-17T09:40:12.856Z,85.00
2023-12-17T09:42:39.421Z,85.20
2023-12-17T09:45:07.170Z,85.00
2023-12-17T09:47:34.872Z,84.80
2023-12-17T09:50:01.518Z,84.80
2023-12-17T09:52:28.075Z,84.90
2023-12-17T09:54:54.637Z,85.10
2023-12-17T09:57:21.249Z,85.20
2023-12-17T09:59:47.839Z,85.50
2023-12-17T10:04:54.813Z,84.80
2023-12-17T10:07:21.385Z,85.00
2023-12-17T10:09:47.903Z,84.60
2023-12-17T10:12:14.469Z,84.50
2023-12-17T10:14:40.992Z,84.70
2023-12-17T10:17:07.623Z,84.80
2023-12-17T10:25:02.055Z,85.10
2023-12-17T10:27:28.679Z,85.00
2023-12-17T10:29:58.615Z,84.90
2023-12-17T10:32:25.293Z,85.10
2023-12-17T10:34:52.419Z,84.90
2023-12-17T10:37:19.098Z,84.90
2023-12-17T10:39:45.641Z,84.80
2023-12-17T10:42:12.224Z,85.10
2023-12-17T10:44:38.781Z,85.40
2023-12-17T10:47:05.310Z,85.20
2023-12-17T10:49:31.902Z,85.10
2023-12-17T10:51:58.466Z,85.10
2023-12-17T10:54:25.058Z,85.00
2023-12-17T10:59:38.215Z,85.00
2023-12-17T11:02:13.493Z,85.20
2023-12-17T11:04:40.043Z,85.30
2023-12-17T11:07:06.622Z,86.00
2023-12-17T11:09:33.206Z,85.20
2023-12-17T11:11:59.846Z,85.00
2023-12-17T11:14:26.399Z,85.10
2023-12-17T11:16:53.074Z,85.60
2023-12-17T11:21:59.931Z,85.20
2023-12-17T11:24:26.505Z,85.40
2023-12-17T11:26:53.123Z,85.30
2023-12-17T11:29:19.675Z,85.20
2023-12-17T11:31:46.191Z,85.20
2023-12-17T11:34:12.839Z,85.20
2023-12-17T11:36:41.709Z,85.50
2023-12-17T11:39:08.597Z,85.00
2023-12-17T11:41:35.162Z,85.30
2023-12-17T11:44:01.734Z,85.30
2023-12-17T11:46:28.259Z,85.30
2023-12-17T11:48:54.825Z,85.40
2023-12-17T11:51:21.412Z,85.50
2023-12-17T11:53:47.964Z,85.70
2023-12-17T11:56:14.546Z,84.90
2023-12-17T11:58:41.109Z,85.50
2023-12-17T12:01:07.906Z,85.40
2023-12-17T12:03:34.685Z,85.50
2023-12-17T12:06:07.336Z,85.30
2023-12-17T12:08:33.929Z,85.30
2023-12-17T12:11:07.594Z,85.20
2023-12-17T12:13:35.117Z,85.20
2023-12-17T12:16:01.640Z,85.50
2023-12-17T12:18:28.308Z,85.60
2023-12-17T12:20:54.969Z,85.20
2023-12-17T12:23:21.532Z,85.30
2023-12-17T12:25:48.050Z,85.60
2023-12-17T12:28:14.585Z,85.80
2023-12-17T12:30:43.424Z,85.70
2023-12-17T12:33:10.098Z,85.50
2023-12-17T12:35:37.065Z,85.60
2023-12-17T12:38:03.598Z,85.30
2023-12-17T12:40:30.135Z,85.30
2023-12-17T12:42:56.675Z,85.50
2023-12-17T12:45:23.249Z,85.50
2023-12-17T12:47:49.990Z,85.50
2023-12-17T12:50:24.204Z,84.80
2023-12-17T12:52:50.743Z,84.60
2023-12-17T12:55:17.278Z,85.10
2023-12-17T12:57:43.952Z,85.40
2023-12-17T13:00:10.592Z,85.00
2023-12-17T13:02:37.150Z,84.90
2023-12-17T13:05:03.802Z,85.10
2023-12-17T13:07:37.660Z,85.10
2023-12-17T13:10:10.772Z,85.30
2023-12-17T13:12:38.240Z,85.20
2023-12-17T13:15:07.085Z,84.90
2023-12-17T13:17:33.647Z,84.80
2023-12-17T13:20:00.339Z,85.10
2023-12-17T13:22:26.937Z,85.00
2023-12-17T13:24:53.472Z,85.00
2023-12-17T13:27:20.068Z,84.80
2023-12-17T13:29:46.597Z,85.10
2023-12-17T13:32:13.198Z,85.20
2023-12-17T13:34:41.939Z,85.10
2023-12-17T13:37:08.536Z,85.20
2023-12-17T13:39:35.201Z,84.80
2023-12-17T13:42:09.211Z,84.90
2023-12-17T13:44:35.821Z,84.50
2023-12-17T13:47:02.374Z,84.70
2023-12-17T13:49:29.052Z,84.60
2023-12-17T13:51:55.590Z,84.60
2023-12-17T13:54:22.732Z,84.80
2023-12-17T13:56:49.301Z,84.60
2023-12-17T13:59:15.832Z,84.60
2023-12-17T14:01:42.331Z,84.50
2023-12-17T14:04:09.098Z,84.50
2023-12-17T14:06:35.727Z,84.40
2023-12-17T14:09:02.291Z,84.50
2023-12-17T14:11:34.267Z,84.50
2023-12-17T14:14:01.548Z,84.50
2023-12-17T14:16:31.538Z,84.50
2023-12-17T14:18:58.123Z,84.50
2023-12-17T14:21:24.732Z,84.40
2023-12-17T14:23:51.283Z,84.50
2023-12-17T14:26:17.818Z,84.50
2023-12-17T14:28:44.339Z,84.30
2023-12-17T14:31:11.050Z,84.50
2023-12-17T14:33:38.022Z,84.30
2023-12-17T14:38:44.967Z,84.40
2023-12-17T14:41:11.536Z,84.20
2023-12-17T14:43:38.389Z,85.20
2023-12-17T14:46:04.928Z,84.60
2023-12-17T14:48:31.576Z,84.50
2023-12-17T14:50:58.251Z,84.20
2023-12-17T14:53:24.828Z,84.30
2023-12-17T14:55:51.374Z,84.20
2023-12-17T14:58:17.946Z,84.40
2023-12-17T15:00:44.602Z,84.40
2023-12-17T15:03:18.657Z,83.90
2023-12-17T15:05:45.233Z,83.70
2023-12-17T15:08:11.773Z,83.80
2023-12-17T15:10:38.333Z,83.80
2023-12-17T15:13:04.866Z,83.40
2023-12-17T15:15:31.464Z,83.60
2023-12-17T15:17:58.080Z,83.50
2023-12-17T15:20:25.690Z,83.30
2023-12-17T15:22:52.265Z,83.60
2023-12-17T15:25:18.832Z,83.50
2023-12-17T15:27:45.528Z,83.50
2023-12-17T15:30:12.221Z,83.60
2023-12-17T15:32:38.821Z,83.20
2023-12-17T15:35:05.366Z,83.00
2023-12-17T15:37:32.156Z,82.90
2023-12-17T15:39:58.670Z,82.90
2023-12-17T15:42:25.211Z,83.00
2023-12-17T15:44:54.034Z,83.10
2023-12-17T15:47:20.644Z,83.30
2023-12-17T15:49:47.209Z,83.10
2023-12-17T15:52:16.517Z,83.30
2023-12-17T15:54:43.048Z,83.50
2023-12-17T15:57:09.646Z,83.30
2023-12-17T15:59:36.657Z,83.20
2023-12-17T16:02:03.219Z,83.50
2023-12-17T16:04:29.797Z,83.60
2023-12-17T16:06:56.517Z,83.10
2023-12-17T16:09:24.006Z,83.00
2023-12-17T16:11:55.676Z,83.10
2023-12-17T16:14:22.233Z,83.70
2023-12-17T16:16:48.763Z,83.60
2023-12-17T16:19:15.600Z,83.70
2023-12-17T16:21:42.235Z,83.90
2023-12-17T16:24:08.978Z,83.90
2023-12-17T16:26:35.579Z,83.60
2023-12-17T16:29:02.108Z,83.80
2023-12-17T16:31:28.661Z,83.70
2023-12-17T16:33:55.319Z,84.00
2023-12-17T16:36:29.503Z,83.90
2023-12-17T16:38:56.118Z,83.80
2023-12-17T16:41:22.667Z,83.90
2023-12-17T16:43:50.400Z,84.00
2023-12-17T16:46:17.423Z,83.80
2023-12-17T16:48:57.892Z,83.90
2023-12-17T16:51:26.117Z,84.00
2023-12-17T16:53:52.683Z,83.90
2023-12-17T16:56:19.192Z,83.40
2023-12-17T16:58:47.983Z,83.30
2023-12-17T17:01:14.518Z,83.20
2023-12-17T17:03:41.132Z,83.60
2023-12-17T17:08:49.898Z,83.70
2023-12-17T17:11:16.580Z,83.60
2023-12-17T17:13:43.442Z,83.20
2023-12-17T17:16:09.965Z,83.20
2023-12-17T17:18:36.599Z,83.10
2023-12-17T17:21:03.247Z,83.50
2023-12-17T17:23:29.846Z,83.20
2023-12-17T17:26:01.511Z,83.00
2023-12-17T17:28:28.030Z,83.00
2023-12-17T17:30:54.663Z,83.00
2023-12-17T17:33:21.371Z,82.40
2023-12-17T17:35:47.975Z,82.50
2023-12-17T17:38:14.513Z,83.10
2023-12-17T17:40:41.033Z,82.90
2023-12-17T17:43:07.583Z,83.00
2023-12-17T17:45:34.182Z,83.10
2023-12-17T17:48:00.865Z,83.00
2023-12-17T17:50:27.526Z,83.00
2023-12-17T17:52:54.050Z,83.30
2023-12-17T17:55:20.593Z,83.10
2023-12-17T17:57:47.150Z,83.00
2023-12-17T18:00:13.726Z,83.10
2023-12-17T18:02:40.861Z,83.00
2023-12-17T18:05:07.585Z,82.50
2023-12-17T18:07:36.299Z,82.80
2023-12-17T18:10:02.850Z,82.90
2023-12-17T18:12:29.533Z,82.60
2023-12-17T18:14:56.184Z,82.80
2023-12-17T18:17:22.740Z,82.90
2023-12-17T18:19:49.542Z,83.10
2023-12-17T18:22:16.094Z,82.60
2023-12-17T18:24:43.863Z,82.30
2023-12-17T18:27:10.444Z,82.30
2023-12-17T18:29:37.020Z,82.40
2023-12-17T18:32:03.554Z,82.60
2023-12-17T18:34:30.203Z,82.50
2023-12-17T18:36:56.791Z,83.10
2023-12-17T18:39:23.425Z,83.00
2023-12-17T18:41:49.924Z,82.90
2023-12-17T18:44:16.447Z,83.50
2023-12-17T18:46:42.953Z,83.70
2023-12-17T18:49:09.543Z,84.00
2023-12-17T18:51:36.098Z,83.60
2023-12-17T18:54:03.219Z,83.30
2023-12-17T18:56:29.840Z,83.80
2023-12-17T18:58:56.756Z,83.80
2023-12-17T19:01:23.369Z,84.40
2023-12-17T19:03:50.199Z,83.90
2023-12-17T19:06:16.859Z,84.10
2023-12-17T19:08:43.405Z,85.00
2023-12-17T19:11:09.922Z,84.50
2023-12-17T19:13:36.503Z,84.50
2023-12-17T19:16:03.103Z,84.50
2023-12-17T19:18:29.687Z,84.40
2023-12-17T19:20:56.353Z,83.90
2023-12-17T19:23:22.921Z,84.00
2023-12-17T19:25:49.457Z,84.10
2023-12-17T19:28:16.003Z,84.50
2023-12-17T19:30:42.584Z,84.30
2023-12-17T19:33:12.444Z,84.20
2023-12-17T19:35:42.525Z,84.40
2023-12-17T19:38:09.068Z,84.20
2023-12-17T19:40:35.599Z,84.00
2023-12-17T19:43:02.190Z,84.00
2023-12-17T19:45:28.785Z,84.20
2023-12-17T19:47:55.383Z,84.60
2023-12-17T19:50:25.647Z,84.80
2023-12-17T19:52:52.205Z,84.50
2023-12-17T19:55:18.815Z,84.50
2023-12-17T19:57:45.420Z,84.60
2023-12-17T20:00:12.126Z,84.80
2023-12-17T20:02:38.939Z,84.40
2023-12-17T20:05:05.843Z,84.50
2023-12-17T20:07:32.408Z,84.30
2023-12-17T20:09:58.966Z,84.50
2023-12-17T20:12:25.603Z,84.10
2023-12-17T20:14:52.170Z,84.50
2023-12-17T20:17:18.749Z,84.00
2023-12-17T20:19:45.362Z,84.40
2023-12-17T20:22:11.932Z,84.50
2023-12-17T20:24:38.560Z,84.70
2023-12-17T20:27:05.233Z,84.70
2023-12-17T20:29:31.835Z,84.50
2023-12-17T20:34:49.142Z,84.60
2023-12-17T20:37:15.672Z,84.50
2023-12-17T20:39:42.190Z,84.70
2023-12-17T20:42:08.786Z,84.50
2023-12-17T20:44:36.564Z,84.60
2023-12-17T20:47:03.206Z,84.90
2023-12-17T20:49:29.726Z,85.00
2023-12-17T20:51:57.290Z,84.60
2023-12-17T20:54:25.554Z,84.20
2023-12-17T20:56:52.197Z,84.10
2023-12-17T20:59:18.719Z,84.30
2023-12-17T21:01:45.252Z,84.50
2023-12-17T21:04:11.880Z,84.50
2023-12-17T21:06:38.941Z,84.80
2023-12-17T21:09:05.532Z,85.10
2023-12-17T21:11:32.089Z,84.80
2023-12-17T21:13:58.593Z,84.60
2023-12-17T21:16:25.127Z,84.60
2023-12-17T21:18:52.077Z,84.70
2023-12-17T21:21:19.042Z,84.80
2023-12-17T21:23:45.636Z,84.40
2023-12-17T21:26:12.153Z,84.40
2023-12-17T21:28:38.657Z,84.20
2023-12-17T21:31:05.344Z,84.30
2023-12-17T21:33:32.081Z,85.10
2023-12-17T21:35:58.899Z,84.80
2023-12-17T21:38:25.436Z,84.90
2023-12-17T21:40:51.984Z,84.80
2023-12-17T21:43:18.659Z,84.80
2023-12-17T21:45:45.237Z,84.60
2023-12-17T21:48:11.933Z,84.20
2023-12-17T21:50:38.584Z,84.40
2023-12-17T21:53:05.089Z,84.50
2023-12-17T21:55:31.633Z,84.60
2023-12-17T21:57:58.184Z,84.50
2023-12-17T22:00:24.855Z,84.30
2023-12-17T22:02:51.504Z,84.50
2023-12-17T22:05:18.145Z,84.60
2023-12-17T22:07:45.196Z,84.70
2023-12-17T22:10:12.064Z,84.50
2023-12-17T22:12:38.606Z,84.50
2023-12-17T22:15:05.163Z,84.80
2023-12-17T22:17:31.804Z,84.50
2023-12-17T22:19:58.401Z,84.30
2023-12-17T22:22:24.949Z,84.40
2023-12-17T22:24:51.489Z,84.30
2023-12-17T22:27:18.111Z,84.50
2023-12-17T22:29:44.650Z,84.60
2023-12-17T22:32:11.255Z,84.60
2023-12-17T22:34:37.835Z,84.80
2023-12-17T22:37:04.398Z,84.70
2023-12-17T22:39:30.945Z,84.30
2023-12-17T22:41:57.554Z,84.30
2023-12-17T22:44:24.216Z,84.30
2023-12-17T22:46:50.745Z,84.00
2023-12-17T22:49:17.393Z,84.10
2023-12-17T22:51:44.021Z,84.20
2023-12-17T22:54:10.596Z,84.50
2023-12-17T22:56:37.149Z,84.30
2023-12-17T22:59:03.641Z,84.20
2023-12-17T23:01:30.211Z,83.90
2023-12-17T23:03:56.811Z,84.30
2023-12-17T23:06:23.471Z,84.10
2023-12-17T23:08:50.021Z,84.10
2023-12-17T23:11:16.571Z,84.00
2023-12-17T23:13:43.078Z,83.90
2023-12-17T23:16:09.622Z,83.90
2023-12-17T23:18:36.251Z,83.80
2023-12-17T23:21:02.931Z,84.30
2023-12-17T23:23:29.469Z,84.00
2023-12-17T23:25:56.005Z,84.00
2023-12-17T23:28:22.538Z,83.60
2023-12-17T23:30:49.209Z,83.90
2023-12-17T23:33:15.966Z,84.00
2023-12-17T23:35:42.586Z,83.90
2023-12-17T23:38:09.097Z,83.70
2023-12-17T23:40:35.641Z,83.60
2023-12-17T23:43:02.191Z,83.70
2023-12-17T23:45:28.782Z,83.40
2023-12-17T23:47:55.407Z,83.30
2023-12-17T23:50:21.963Z,83.40
2023-12-17T23:52:48.478Z,83.20
2023-12-17T23:55:14.996Z,82.90
2023-12-17T23:57:41.907Z,82.40
